首页
METAR-TAF:

METAR-TAF

机场 :

雅蒲島, 密克罗尼西亚群岛

雅蒲島國際機場

纬度: 09-29N, 经度: 138-05E, 海拔: 28米

当前天气观测

该预报发布于27分钟前的02:50 UTC
风速7节,风向东转东北
温度 27°C
湿度 89%
气压 1009 hPa
能見度: 14.5公里
散云层高于1600英尺, 塔状积云.
多云层高于13000英尺
阴天层高于30000英尺
小阵雨

METAR: PTYA 200250Z 07007KT 9SM -SHRA SCT016TCU BKN130 OVC300 27/25 A2979 RMK SHRAB08 TCU ALQDS SLP088 60011 8/271 T02730249 58014

时间: 13:17 (03:17 UTC)

预报

该预报发布于3小时和49分钟前的23:28 UTC
预报有效从20日的 00点(UTC)到 20日的 24点(UTC)
风速7节,风向东转东北
能見度: 10公里
散云层高于1600英尺
散云层高于5000英尺
附近有阵雨

TAF: PTYA 192328Z 2000/2024 07007KT P6SM VCSH SCT016 SCT050

超过4000个机场的气象观测和天气预报(METAR&TAF报告)。

可查询的气象台以黄色和红色小点在地图上表示。

将鼠标移到小点上方,可查看气象台名称。

然后点击查看天气观测和预报。

如需切换地图:点击带黑十字的绿色按钮放大地图;点击带横线的绿色按钮缩小地图;或者点击绿色箭头查看邻近地区的地图。


METAR-TAF: